Time;durP1;ratioP1;P1;durP2;ratioP2;P2;SDS_P1;SDS_P2;PMS_P1;PMS_P2;Temp;Humidity;BMP_temperature;BMP_pressure;BME280_temperature;BME280_humidity;BME280_pressure;Samples;Min_cycle;Max_cycle;Signal;HPM_P1;HPM_P2
2022/11/21 00:00:25;;;;;;;4.90;3.47;;;;;;;11.46;100.00;93528.81;5067862;28;20180;-77
2022/11/21 00:02:50;;;;;;;3.50;3.07;;;;;;;11.45;100.00;93552.75;5086757;28;20260;-77
2022/11/21 00:05:16;;;;;;;6.10;3.40;;;;;;;11.42;100.00;93522.41;5079158;28;20174;-77
2022/11/21 00:07:41;;;;;;;4.13;3.23;;;;;;;11.49;100.00;93538.84;5090518;28;20169;-77
2022/11/21 00:10:07;;;;;;;7.63;4.13;;;;;;;11.44;100.00;93528.25;5059141;28;20413;-77
2022/11/21 00:12:33;;;;;;;6.33;4.47;;;;;;;11.42;100.00;93525.06;5080208;28;20414;-77
2022/11/21 00:14:58;;;;;;;4.67;3.43;;;;;;;11.43;100.00;93524.00;5083719;28;20246;-77
2022/11/21 00:17:23;;;;;;;7.50;4.17;;;;;;;11.43;100.00;93515.31;5088985;28;20407;-77
2022/11/21 00:19:49;;;;;;;8.07;4.70;;;;;;;11.48;100.00;93516.19;5092818;28;20170;-77
2022/11/21 00:22:14;;;;;;;7.73;4.60;;;;;;;11.50;100.00;93503.53;5081276;28;20295;-77
2022/11/21 00:24:41;;;;;;;7.90;5.17;;;;;;;11.49;100.00;93511.69;5094170;28;20469;-77
2022/11/21 00:27:06;;;;;;;8.40;4.33;;;;;;;11.53;100.00;93521.47;5084238;28;20421;-77
2022/11/21 00:29:31;;;;;;;12.20;4.70;;;;;;;11.46;100.00;93499.81;5086606;28;20673;-78
2022/11/21 00:31:57;;;;;;;7.97;4.37;;;;;;;11.59;99.88;93502.03;5086463;28;20178;-78
2022/11/21 00:34:22;;;;;;;10.30;4.97;;;;;;;11.62;99.67;93491.00;5082329;28;20194;-77
2022/11/21 00:36:47;;;;;;;8.53;5.13;;;;;;;11.52;99.60;93485.63;5083574;28;20261;-78
2022/11/21 00:39:13;;;;;;;12.67;7.20;;;;;;;11.57;100.00;93483.06;5081634;28;20515;-77
2022/11/21 00:41:38;;;;;;;6.67;5.07;;;;;;;11.61;99.94;93492.03;5088108;28;20166;-77
2022/11/21 00:44:04;;;;;;;7.97;5.00;;;;;;;11.32;100.00;93453.84;5085999;28;20177;-77
2022/11/21 00:46:29;;;;;;;6.30;4.20;;;;;;;11.55;99.78;93484.34;5082386;28;20248;-77
2022/11/21 00:48:54;;;;;;;9.20;5.07;;;;;;;11.50;99.77;93474.53;5072749;28;21298;-77
2022/11/21 00:51:20;;;;;;;6.67;4.50;;;;;;;11.54;99.83;93453.75;5091257;28;20177;-77
2022/11/21 00:53:46;;;;;;;7.70;4.50;;;;;;;11.55;99.40;93461.44;5088281;28;20457;-77
2022/11/21 00:56:11;;;;;;;5.63;4.13;;;;;;;11.19;99.54;93457.66;5089214;28;20424;-77
2022/11/21 00:58:37;;;;;;;6.57;4.03;;;;;;;11.07;100.00;93464.16;5091288;28;20170;-77
2022/11/21 01:01:10;;;;;;;6.20;4.10;;;;;;;11.16;100.00;93471.31;5085640;28;20683;-77
2022/11/21 01:03:36;;;;;;;8.73;4.27;;;;;;;11.19;100.00;93462.13;5088549;28;20179;-77
2022/11/21 01:06:04;;;;;;;10.50;5.20;;;;;;;11.27;100.00;93453.78;5089041;28;20178;-77
2022/11/21 01:08:29;;;;;;;8.57;4.20;;;;;;;11.32;100.00;93443.31;5080141;28;20173;-77
2022/11/21 01:10:55;;;;;;;8.37;4.67;;;;;;;11.24;99.93;93430.59;5088582;28;20178;-77
2022/11/21 01:13:20;;;;;;;7.60;4.37;;;;;;;11.29;99.84;93425.38;5091316;28;20233;-77
2022/11/21 01:15:46;;;;;;;4.97;3.73;;;;;;;11.42;99.48;93463.66;5078550;28;20178;-77
2022/11/21 01:18:11;;;;;;;6.70;3.93;;;;;;;11.15;99.52;93416.28;5084376;28;20178;-77
2022/11/21 01:20:40;;;;;;;5.07;4.05;;;;;;;11.37;99.62;93432.00;5089445;28;20439;-77
2022/11/21 01:23:05;;;;;;;7.78;4.70;;;;;;;11.20;99.09;93425.03;5074413;28;20926;-77
2022/11/21 01:25:38;;;;;;;7.38;5.03;;;;;;;11.04;99.83;93427.75;5076328;28;20404;-77
2022/11/21 01:28:03;;;;;;;6.97;4.50;;;;;;;11.22;100.00;93457.19;5080118;28;20784;-77
2022/11/21 01:30:28;;;;;;;7.10;5.20;;;;;;;11.27;100.00;93466.97;5087102;28;20405;-77
2022/11/21 01:32:54;;;;;;;8.63;4.93;;;;;;;11.25;100.00;93469.03;5082157;28;20173;-77
2022/11/21 01:35:19;;;;;;;9.30;5.27;;;;;;;11.14;100.00;93446.31;5093227;28;20177;-77
2022/11/21 01:37:48;;;;;;;12.10;5.40;;;;;;;11.13;99.79;93437.59;5084624;28;20750;-77
2022/11/21 01:40:14;;;;;;;6.33;5.10;;;;;;;11.12;100.00;93406.25;5069113;28;20178;-77
2022/11/21 01:43:02;;;;;;;8.80;5.13;;;;;;;11.34;99.79;93430.66;5082763;28;20179;-77
2022/11/21 01:45:49;;;;;;;7.70;4.90;;;;;;;11.35;99.61;93442.78;5089211;28;20204;-77
2022/11/21 01:48:14;;;;;;;7.55;5.85;;;;;;;11.26;99.73;93431.13;5087002;28;20948;-77
2022/11/21 01:50:40;;;;;;;8.67;6.17;;;;;;;11.12;100.00;93433.38;5074592;28;20517;-77
2022/11/21 01:53:05;;;;;;;9.37;6.63;;;;;;;10.84;100.00;93442.31;5072442;28;20418;-77
2022/11/21 01:55:32;;;;;;;9.53;6.87;;;;;;;10.75;100.00;93406.13;5071254;28;20475;-77
2022/11/21 01:57:58;;;;;;;9.03;5.47;;;;;;;11.05;100.00;93421.47;5055148;28;20179;-77
2022/11/21 02:00:26;;;;;;;6.53;5.10;;;;;;;10.91;100.00;93395.50;5073132;28;20178;-77
2022/11/21 02:02:58;;;;;;;5.87;4.53;;;;;;;11.15;100.00;93426.81;5074271;28;20176;-77
2022/11/21 02:05:29;;;;;;;7.50;5.60;;;;;;;11.04;100.00;93399.59;5080875;28;20236;-77
2022/11/21 02:07:58;;;;;;;8.38;6.32;;;;;;;11.03;100.00;93434.06;5082291;28;20436;-77
2022/11/21 02:10:24;;;;;;;8.57;5.10;;;;;;;11.06;100.00;93417.78;5057998;28;20611;-77
2022/11/21 02:12:52;;;;;;;8.43;5.43;;;;;;;11.21;100.00;93426.63;5077617;28;20166;-77
2022/11/21 02:15:20;;;;;;;9.10;6.00;;;;;;;11.13;100.00;93411.28;5079674;28;20404;-77
2022/11/21 02:17:45;;;;;;;7.30;4.97;;;;;;;11.16;100.00;93413.38;5079410;28;20239;-77
2022/11/21 02:20:17;;;;;;;7.53;5.10;;;;;;;11.22;100.00;93441.38;5078460;28;20256;-77
2022/11/21 02:22:50;;;;;;;7.80;4.93;;;;;;;11.30;100.00;93426.97;5077645;28;20201;-77
2022/11/21 02:25:20;;;;;;;8.00;4.90;;;;;;;11.30;100.00;93429.59;5081092;28;20170;-78
2022/11/21 02:27:48;;;;;;;10.07;4.57;;;;;;;11.33;100.00;93434.34;5093031;28;20184;-77
2022/11/21 02:30:15;;;;;;;9.00;5.03;;;;;;;11.40;100.00;93426.25;5079626;28;20413;-77
2022/11/21 02:32:51;;;;;;;6.60;5.23;;;;;;;11.34;100.00;93418.28;5070920;28;20910;-77
2022/11/21 02:35:17;;;;;;;7.73;4.40;;;;;;;11.47;100.00;93430.25;5079216;28;20177;-77
2022/11/21 02:37:46;;;;;;;8.23;4.70;;;;;;;11.47;100.00;93434.75;5080321;28;20307;-77
2022/11/21 02:40:17;;;;;;;7.10;4.90;;;;;;;11.49;100.00;93437.94;5080985;28;20824;-77
2022/11/21 02:42:49;;;;;;;8.52;5.10;;;;;;;11.35;99.67;93416.44;5056985;28;20553;-77
2022/11/21 02:45:32;;;;;;;6.97;4.43;;;;;;;11.29;100.00;93428.78;5092720;28;20667;-77
2022/11/21 02:47:57;;;;;;;8.60;5.13;;;;;;;11.23;100.00;93411.38;5088149;28;20414;-77
2022/11/21 02:50:27;;;;;;;8.03;4.33;;;;;;;11.35;100.00;93411.19;5085994;28;20165;-77
2022/11/21 02:52:54;;;;;;;7.88;4.80;;;;;;;11.42;100.00;93424.94;5089291;28;20476;-77
2022/11/21 02:55:19;;;;;;;5.30;3.77;;;;;;;11.54;100.00;93401.06;5087595;28;20215;-77
2022/11/21 02:57:45;;;;;;;7.37;4.37;;;;;;;11.22;100.00;93330.75;5083328;28;20174;-77
2022/11/21 03:00:11;;;;;;;4.77;3.73;;;;;;;11.66;98.74;93381.41;5084558;28;20422;-77
2022/11/21 03:02:37;;;;;;;5.28;3.67;;;;;;;11.73;98.34;93370.63;5084508;28;21085;-77
2022/11/21 03:05:04;;;;;;;5.70;4.00;;;;;;;11.64;98.60;93387.97;5077923;28;20406;-77
2022/11/21 03:07:30;;;;;;;6.30;3.67;;;;;;;11.61;98.83;93378.72;5078502;28;20185;-77
2022/11/21 03:09:56;;;;;;;6.33;3.87;;;;;;;11.64;99.23;93372.94;5078777;28;20170;-77
2022/11/21 03:12:21;;;;;;;6.00;4.13;;;;;;;11.55;99.10;93356.00;5081417;28;20173;-77
2022/11/21 03:14:46;;;;;;;10.20;4.03;;;;;;;11.66;98.77;93370.84;5076300;28;20429;-77
2022/11/21 03:17:12;;;;;;;9.07;3.70;;;;;;;11.52;98.78;93366.25;5074684;28;20623;-77
2022/11/21 03:19:37;;;;;;;6.20;4.03;;;;;;;11.25;99.86;93353.94;5074414;28;20834;-77
2022/11/21 03:22:03;;;;;;;7.97;3.57;;;;;;;11.53;100.00;93370.47;5075908;28;20170;-77
2022/11/21 03:24:28;;;;;;;4.57;3.53;;;;;;;11.49;99.52;93375.47;5080796;28;20062;-77
2022/11/21 03:26:54;;;;;;;5.17;3.50;;;;;;;11.49;99.86;93372.84;5085506;28;20527;-77
2022/11/21 03:29:19;;;;;;;7.43;3.90;;;;;;;11.61;99.78;93389.25;5073943;28;20438;-77
2022/11/21 03:31:44;;;;;;;4.77;3.43;;;;;;;11.48;99.74;93352.00;5074261;28;20628;-77
2022/11/21 03:34:10;;;;;;;12.70;4.77;;;;;;;11.66;99.85;93370.84;5078330;28;20277;-77
2022/11/21 03:36:35;;;;;;;7.20;4.17;;;;;;;11.35;99.37;93353.22;5078349;28;20416;-77
2022/11/21 03:39:01;;;;;;;6.50;3.87;;;;;;;11.53;99.93;93371.28;5086654;28;20511;-77
2022/11/21 03:41:29;;;;;;;4.93;3.50;;;;;;;11.57;99.59;93353.94;5067532;28;20193;-77
2022/11/21 03:43:59;;;;;;;5.07;2.72;;;;;;;11.64;99.06;93370.31;5082708;28;20437;-77
2022/11/21 03:46:26;;;;;;;4.87;2.77;;;;;;;11.60;99.21;93350.78;5086422;28;20174;-77
2022/11/21 03:48:52;;;;;;;4.63;2.92;;;;;;;11.69;99.33;93348.44;5091338;28;20435;-77
2022/11/21 03:51:17;;;;;;;5.87;2.27;;;;;;;11.58;99.11;93329.16;5081582;28;20632;-77
2022/11/21 03:53:43;;;;;;;5.97;2.53;;;;;;;11.77;98.31;93349.84;5084155;28;20481;-77
2022/11/21 03:56:08;;;;;;;4.20;2.30;;;;;;;12.01;96.87;93362.41;5080056;28;20471;-77
2022/11/21 03:58:34;;;;;;;5.23;2.00;;;;;;;11.99;96.39;93332.84;5081610;28;20170;-77
2022/11/21 04:00:59;;;;;;;3.37;2.17;;;;;;;11.99;96.21;93317.03;5091462;28;20920;-77
2022/11/21 04:03:24;;;;;;;3.53;2.50;;;;;;;11.90;95.72;93307.22;5088782;28;20416;-77
2022/11/21 04:05:50;;;;;;;3.70;2.03;;;;;;;11.77;96.07;93318.22;5095235;28;20440;-77
2022/11/21 04:08:15;;;;;;;4.68;1.75;;;;;;;11.97;95.94;93339.41;5076388;28;20430;-77
2022/11/21 04:10:51;;;;;;;5.63;2.20;;;;;;;12.10;96.16;93344.25;5093768;28;20518;-77
2022/11/21 04:13:17;;;;;;;4.38;2.17;;;;;;;12.31;92.66;93350.38;5093204;28;20424;-77
2022/11/21 04:15:43;;;;;;;4.27;2.10;;;;;;;12.08;93.01;93288.31;5085965;28;20401;-78
2022/11/21 04:18:09;;;;;;;4.07;1.90;;;;;;;12.07;92.25;93324.44;5074249;28;20509;-78
2022/11/21 04:20:34;;;;;;;6.45;1.80;;;;;;;12.45;86.46;93349.63;5085613;28;20461;-77
2022/11/21 04:23:00;;;;;;;5.03;1.67;;;;;;;12.68;84.90;93335.19;5079409;28;20224;-76
2022/11/21 04:25:25;;;;;;;12.00;1.90;;;;;;;12.80;85.08;93362.13;5082403;28;20401;-76
2022/11/21 04:27:54;;;;;;;4.05;1.30;;;;;;;13.05;81.98;93353.47;5072752;28;20420;-76
2022/11/21 04:30:20;;;;;;;7.00;1.60;;;;;;;13.18;81.90;93358.25;5072797;28;20440;-76
2022/11/21 04:32:46;;;;;;;2.45;1.38;;;;;;;13.35;79.98;93355.34;5093719;28;20960;-76
2022/11/21 04:35:11;;;;;;;9.07;1.98;;;;;;;13.25;82.06;93338.69;5076908;28;20457;-78
2022/11/21 04:37:38;;;;;;;5.90;1.80;;;;;;;13.20;83.54;93361.44;5049791;28;20478;-77
2022/11/21 04:40:04;;;;;;;5.93;1.50;;;;;;;13.30;81.80;93359.84;5071371;28;20464;-78
2022/11/21 04:42:29;;;;;;;3.42;1.50;;;;;;;13.43;80.57;93367.25;5067871;28;20418;-77
2022/11/21 04:44:56;;;;;;;7.15;2.13;;;;;;;13.56;80.15;93367.53;5067949;28;20422;-77
2022/11/21 04:47:21;;;;;;;3.25;1.33;;;;;;;13.59;79.29;93356.38;5072920;28;20891;-75
2022/11/21 04:49:47;;;;;;;5.43;2.10;;;;;;;13.52;79.81;93369.09;5086093;28;20404;-76
2022/11/21 04:52:12;;;;;;;4.53;1.73;;;;;;;13.46;80.51;93369.38;5090491;28;20828;-75
2022/11/21 04:54:37;;;;;;;5.10;1.70;;;;;;;13.46;81.72;93372.81;5083623;28;20437;-75
2022/11/21 04:57:03;;;;;;;6.43;1.50;;;;;;;13.47;80.42;93382.31;5083402;28;20422;-75
2022/11/21 04:59:28;;;;;;;3.83;1.57;;;;;;;13.48;81.21;93367.25;5081759;28;20178;-75
2022/11/21 05:01:53;;;;;;;7.10;2.27;;;;;;;13.50;81.90;93373.06;5071615;28;20472;-75
2022/11/21 05:04:19;;;;;;;4.67;1.90;;;;;;;13.47;82.74;93376.25;5072360;28;20398;-75
2022/11/21 05:06:44;;;;;;;5.93;1.70;;;;;;;13.35;83.39;93397.63;5072740;28;20659;-75
2022/11/21 05:09:10;;;;;;;4.80;1.60;;;;;;;13.13;83.74;93384.69;5071715;28;20401;-75
2022/11/21 05:14:19;;;;;;;2.30;1.10;;;;;;;12.87;83.76;93406.78;5072835;28;20204;-75
2022/11/21 05:16:45;;;;;;;3.35;1.90;;;;;;;12.67;84.65;93407.50;5089691;28;20404;-75
2022/11/21 05:19:10;;;;;;;3.37;1.57;;;;;;;12.65;84.07;93400.91;5071703;28;20406;-75
2022/11/21 05:21:35;;;;;;;1.80;1.10;;;;;;;12.51;84.45;93434.13;5070855;28;20520;-75
2022/11/21 05:24:01;;;;;;;2.00;0.90;;;;;;;12.36;84.77;93411.88;5071592;28;21220;-75
2022/11/21 05:26:26;;;;;;;1.80;1.10;;;;;;;11.98;84.89;93436.72;5071184;28;20433;-75
2022/11/21 05:28:52;;;;;;;3.20;1.27;;;;;;;11.80;86.05;93425.78;5070940;28;20467;-75
2022/11/21 05:31:17;;;;;;;2.92;1.40;;;;;;;11.70;86.30;93432.53;5071006;28;20492;-74
2022/11/21 05:33:42;;;;;;;2.87;1.30;;;;;;;11.62;85.43;93463.84;5070554;28;20430;-74
2022/11/21 05:36:08;;;;;;;3.73;1.03;;;;;;;11.60;85.45;93453.53;5071905;28;20478;-74
2022/11/21 05:38:33;;;;;;;2.17;1.10;;;;;;;11.53;84.92;93457.44;5071401;28;20488;-74
2022/11/21 05:40:59;;;;;;;1.00;0.90;;;;;;;11.48;84.37;93458.22;5070801;28;20915;-74
2022/11/21 05:46:08;;;;;;;4.03;1.90;;;;;;;11.20;84.41;93488.22;5066148;28;20397;-74
2022/11/21 05:48:35;;;;;;;4.87;2.23;;;;;;;11.09;84.67;93499.69;5071157;28;20410;-74
2022/11/21 05:51:01;;;;;;;3.30;1.87;;;;;;;10.95;84.55;93498.50;5068278;28;20405;-74
2022/11/21 05:53:26;;;;;;;3.92;2.38;;;;;;;10.66;84.63;93473.41;5071057;28;20460;-74
2022/11/21 05:55:52;;;;;;;2.93;1.90;;;;;;;10.57;84.72;93525.66;5070618;28;20468;-74
2022/11/21 05:58:18;;;;;;;1.40;1.30;;;;;;;10.45;85.61;93517.88;5070401;28;20406;-74
2022/11/21 06:00:43;;;;;;;3.38;1.63;;;;;;;10.39;85.13;93533.81;5069560;28;20418;-74
2022/11/21 06:03:29;;;;;;;3.20;1.70;;;;;;;10.30;85.07;93522.91;5070098;28;20497;-74
2022/11/21 06:06:11;;;;;;;2.13;1.60;;;;;;;10.05;86.07;93525.16;5064048;28;20476;-74
2022/11/21 06:08:42;;;;;;;1.63;1.30;;;;;;;10.01;86.53;93542.44;5064711;28;20410;-75
2022/11/21 06:11:09;;;;;;;2.13;1.30;;;;;;;9.93;86.66;93545.47;5069326;28;20488;-75
2022/11/21 06:13:35;;;;;;;2.10;1.80;;;;;;;9.70;86.25;93525.38;5070011;28;20461;-75
2022/11/21 06:16:09;;;;;;;2.97;2.00;;;;;;;9.84;86.24;93556.38;5070300;28;20409;-74
2022/11/21 06:18:36;;;;;;;1.83;1.63;;;;;;;9.80;85.48;93557.09;5079731;28;20496;-74
2022/11/21 06:21:12;;;;;;;1.60;1.47;;;;;;;9.65;85.53;93560.25;5071989;28;20182;-74
2022/11/21 06:23:38;;;;;;;2.13;1.30;;;;;;;9.49;85.87;93552.34;5063625;28;20502;-74
2022/11/21 06:26:05;;;;;;;2.60;1.70;;;;;;;9.33;86.65;93561.78;5070525;28;20489;-75
2022/11/21 06:28:34;;;;;;;1.90;1.40;;;;;;;9.18;87.52;93575.41;5069992;28;20464;-75
2022/11/21 06:31:04;;;;;;;2.88;1.73;;;;;;;9.05;87.60;93570.44;5069971;28;20495;-74
2022/11/21 06:33:29;;;;;;;1.92;1.40;;;;;;;9.09;87.38;93575.00;5069715;28;20432;-75
2022/11/21 06:35:54;;;;;;;1.67;1.47;;;;;;;9.04;87.76;93568.84;5069933;28;20406;-75
2022/11/21 06:38:20;;;;;;;1.33;0.93;;;;;;;9.07;87.35;93589.41;5070938;28;20264;-74
2022/11/21 06:40:45;;;;;;;1.77;1.50;;;;;;;8.95;87.77;93573.66;5069530;28;20493;-74
2022/11/21 06:43:11;;;;;;;1.30;1.20;;;;;;;8.81;88.47;93582.03;5069600;28;20192;-75
2022/11/21 06:45:36;;;;;;;2.60;1.43;;;;;;;8.83;88.88;93606.19;5069920;28;20413;-75
2022/11/21 06:48:02;;;;;;;2.33;1.10;;;;;;;8.74;89.66;93602.31;5065930;28;20438;-74
2022/11/21 06:50:30;;;;;;;1.73;1.30;;;;;;;8.60;90.32;93630.63;5070403;28;20410;-75
2022/11/21 06:52:58;;;;;;;2.90;1.60;;;;;;;8.48;91.15;93638.50;5069808;28;20413;-73
2022/11/21 06:55:26;;;;;;;3.28;1.58;;;;;;;8.56;91.29;93653.13;5069303;28;20429;-74
2022/11/21 06:57:52;;;;;;;2.08;1.88;;;;;;;8.56;90.69;93659.13;5069491;28;20406;-75
2022/11/21 07:00:19;;;;;;;2.78;1.80;;;;;;;8.42;91.05;93662.22;5070807;28;20461;-75
2022/11/21 07:02:45;;;;;;;2.83;1.55;;;;;;;8.46;91.59;93672.03;5068999;28;20413;-74
2022/11/21 07:05:10;;;;;;;3.08;2.15;;;;;;;8.41;91.79;93684.19;5069381;28;20406;-75
2022/11/21 07:07:36;;;;;;;3.23;1.90;;;;;;;8.44;91.16;93692.44;5069062;28;20405;-75
2022/11/21 07:10:01;;;;;;;5.03;2.20;;;;;;;8.27;91.93;93699.31;5069154;28;20509;-75
2022/11/21 07:15:11;;;;;;;6.97;3.50;;;;;;;8.12;93.00;93715.47;5066751;28;20487;-75
2022/11/21 07:17:36;;;;;;;2.97;1.90;;;;;;;7.89;93.34;93708.31;5067377;28;20414;-74
2022/11/21 07:20:02;;;;;;;3.20;2.00;;;;;;;7.81;93.52;93690.31;5067120;28;20966;-75
2022/11/21 07:22:27;;;;;;;1.90;1.60;;;;;;;7.61;92.64;93679.28;5066508;28;20843;-74
2022/11/21 07:24:53;;;;;;;3.00;2.50;;;;;;;7.78;93.57;93732.66;5066736;28;20561;-74
2022/11/21 07:27:18;;;;;;;2.10;1.80;;;;;;;7.55;93.53;93694.06;5068512;28;20913;-74
2022/11/21 07:29:43;;;;;;;4.23;2.00;;;;;;;7.39;94.31;93702.53;5068817;28;20406;-74
2022/11/21 07:32:09;;;;;;;2.75;1.85;;;;;;;7.40;94.24;93739.97;5069130;28;20838;-75
2022/11/21 07:34:34;;;;;;;4.97;1.80;;;;;;;7.44;94.76;93735.88;5068715;28;20949;-74
2022/11/21 07:37:00;;;;;;;4.47;2.30;;;;;;;7.32;94.67;93721.94;5068651;28;20846;-75
2022/11/21 07:39:25;;;;;;;4.32;3.10;;;;;;;7.45;94.85;93755.81;5069018;28;20422;-75
2022/11/21 07:41:51;;;;;;;5.80;3.50;;;;;;;7.32;94.39;93753.34;5069947;28;20799;-74
2022/11/21 07:44:16;;;;;;;4.40;3.10;;;;;;;7.43;94.13;93755.25;5070132;28;20489;-75
2022/11/21 07:46:41;;;;;;;7.43;4.10;;;;;;;7.41;94.19;93762.50;5068621;28;20406;-75
2022/11/21 07:49:07;;;;;;;5.60;2.93;;;;;;;7.39;93.75;93775.00;5069791;28;20644;-75
2022/11/21 07:51:32;;;;;;;4.27;2.70;;;;;;;7.44;93.78;93777.78;5051599;28;20182;-75
2022/11/21 07:53:57;;;;;;;3.77;1.90;;;;;;;7.46;93.63;93776.53;5069379;28;20277;-75
2022/11/21 07:56:25;;;;;;;7.17;3.23;;;;;;;7.41;93.60;93783.47;5069590;28;20228;-75
2022/11/21 07:58:51;;;;;;;5.20;2.77;;;;;;;7.44;94.56;93791.66;5069494;28;20175;-75
2022/11/21 08:01:16;;;;;;;3.07;1.53;;;;;;;7.35;93.44;93794.81;5069550;28;20243;-74
2022/11/21 08:03:42;;;;;;;2.77;1.83;;;;;;;7.34;93.77;93794.00;5069340;28;20179;-75
2022/11/21 08:06:10;;;;;;;5.03;2.80;;;;;;;7.32;94.88;93805.69;5069355;28;20167;-75
2022/11/21 08:08:36;;;;;;;3.60;2.70;;;;;;;7.35;94.64;93800.81;5069494;28;20178;-75
2022/11/21 08:11:05;;;;;;;1.57;1.47;;;;;;;7.46;94.34;93813.19;5069264;28;20181;-75
2022/11/21 08:13:31;;;;;;;2.27;1.90;;;;;;;7.67;92.79;93821.66;5069311;28;20186;-75
2022/11/21 08:15:56;;;;;;;5.17;2.80;;;;;;;7.64;92.46;93809.78;5069368;28;20564;-75
2022/11/21 08:18:22;;;;;;;5.70;2.37;;;;;;;7.77;91.78;93838.47;5069362;28;20674;-75
2022/11/21 08:20:47;;;;;;;10.23;7.60;;;;;;;7.84;91.59;93844.44;5069331;28;20173;-74
2022/11/21 08:23:13;;;;;;;7.20;5.40;;;;;;;7.77;90.20;93845.53;5069479;28;20655;-75
2022/11/21 08:25:39;;;;;;;7.00;4.87;;;;;;;7.92;91.46;93859.84;5069033;28;20193;-75
2022/11/21 08:28:06;;;;;;;6.87;4.30;;;;;;;7.92;90.58;93862.47;5069093;28;20170;-75
2022/11/21 08:30:32;;;;;;;2.50;2.20;;;;;;;8.04;90.80;93865.16;5069131;28;20239;-75
2022/11/21 08:32:58;;;;;;;3.20;1.60;;;;;;;8.02;90.21;93850.66;5069540;28;20181;-75
2022/11/21 08:35:27;;;;;;;3.30;2.33;;;;;;;8.08;88.51;93871.56;5072907;28;20288;-75
2022/11/21 08:37:56;;;;;;;6.63;2.80;;;;;;;8.17;88.14;93869.44;5072797;28;20291;-75
2022/11/21 08:40:23;;;;;;;5.13;3.13;;;;;;;8.22;89.06;93880.03;5072907;28;20206;-75
2022/11/21 08:42:58;;;;;;;5.50;3.40;;;;;;;8.24;89.07;93878.00;5073034;28;20185;-74
2022/11/21 08:45:24;;;;;;;9.13;6.10;;;;;;;8.25;88.09;93869.94;5072652;28;20261;-75
2022/11/21 08:47:50;;;;;;;5.13;3.67;;;;;;;8.32;87.77;93875.13;5072457;28;20162;-75
2022/11/21 08:50:16;;;;;;;4.30;2.80;;;;;;;8.37;87.18;93869.22;5073012;28;20182;-75
2022/11/21 08:52:41;;;;;;;7.83;3.90;;;;;;;8.35;86.96;93858.16;5072413;28;20179;-74
2022/11/21 08:55:08;;;;;;;8.67;3.70;;;;;;;8.36;87.85;93863.19;5072105;28;20259;-75
2022/11/21 08:57:37;;;;;;;12.23;6.23;;;;;;;8.23;86.83;93837.91;5072218;28;20178;-75
2022/11/21 09:00:04;;;;;;;6.67;4.93;;;;;;;8.22;86.56;93843.34;5072369;28;20166;-75
2022/11/21 09:02:30;;;;;;;5.33;3.00;;;;;;;8.40;86.14;93863.53;5072276;28;20178;-75
2022/11/21 09:04:55;;;;;;;6.83;4.13;;;;;;;8.48;86.77;93869.25;5072403;28;20171;-73
2022/11/21 09:07:21;;;;;;;4.77;3.13;;;;;;;8.52;86.18;93864.38;5072923;28;20567;-74
2022/11/21 09:09:46;;;;;;;3.50;2.40;;;;;;;8.53;87.10;93863.38;5070258;28;20285;-75
2022/11/21 09:12:11;;;;;;;3.87;2.27;;;;;;;8.61;86.81;93876.97;5072491;28;20182;-75
2022/11/21 09:20:05;;;;;;;2.80;1.43;;;;;;;8.64;87.59;93889.66;5069309;28;20285;-74
2022/11/21 09:22:30;;;;;;;6.43;2.57;;;;;;;8.58;87.54;93897.59;5088416;28;20682;-73
2022/11/21 09:24:56;;;;;;;2.80;1.77;;;;;;;8.56;86.47;93881.28;5060979;28;20640;-74
2022/11/21 09:27:21;;;;;;;4.67;2.40;;;;;;;8.55;86.96;93884.94;5083789;28;20182;-74
2022/11/21 09:29:47;;;;;;;2.10;1.60;;;;;;;8.54;86.64;93889.38;5072609;28;20253;-74
2022/11/21 09:32:12;;;;;;;3.23;1.40;;;;;;;8.50;87.22;93890.81;5073100;28;20182;-75
2022/11/21 09:34:37;;;;;;;3.87;1.70;;;;;;;8.41;86.54;93889.53;5088377;28;20212;-75
2022/11/21 09:37:03;;;;;;;2.47;1.80;;;;;;;8.32;87.06;93880.38;5077287;28;20639;-74
2022/11/21 09:39:29;;;;;;;3.60;1.70;;;;;;;8.33;86.66;93895.06;5082336;28;20614;-74
2022/11/21 09:42:24;;;;;;;2.83;1.80;;;;;;;8.08;86.24;93870.75;5084282;28;20185;-74
2022/11/21 09:45:15;;;;;;;4.77;2.77;;;;;;;8.05;87.20;93881.66;5076833;28;20582;-73
2022/11/21 09:47:48;;;;;;;4.50;2.70;;;;;;;7.94;88.83;93888.47;5081913;28;20248;-74
2022/11/21 09:50:13;;;;;;;6.73;3.10;;;;;;;7.92;89.20;93895.72;5076199;28;20186;-74
2022/11/21 09:52:54;;;;;;;3.77;2.50;;;;;;;7.85;88.85;93887.94;5087986;28;20185;-74
2022/11/21 09:55:22;;;;;;;4.90;2.90;;;;;;;7.83;88.85;93897.84;5073363;28;20194;-74
2022/11/21 09:57:49;;;;;;;8.80;4.20;;;;;;;7.81;89.12;93904.28;5067479;28;20179;-73
2022/11/21 10:00:24;;;;;;;4.00;3.03;;;;;;;7.60;88.05;93908.16;5071102;28;20178;-75
2022/11/21 10:02:51;;;;;;;4.00;2.70;;;;;;;7.56;88.96;93907.75;5074686;28;20181;-74
2022/11/21 10:05:24;;;;;;;4.90;3.30;;;;;;;7.48;89.30;93904.63;5076331;28;20177;-74
2022/11/21 10:07:53;;;;;;;6.20;4.23;;;;;;;7.14;89.69;93883.16;5079116;28;20170;-74
2022/11/21 10:10:45;;;;;;;11.10;6.70;;;;;;;7.33;90.23;93919.84;5086824;28;20177;-74
2022/11/21 10:13:19;;;;;;;12.32;7.18;;;;;;;7.37;89.91;93908.72;5071519;28;20426;-74
2022/11/21 10:16:20;;;;;;;13.97;8.43;;;;;;;7.46;90.33;93907.44;5079667;28;20170;-74
2022/11/21 10:18:51;;;;;;;10.50;6.90;;;;;;;7.47;90.25;93913.47;5042847;28;20278;-74
2022/11/21 10:21:44;;;;;;;11.77;6.10;;;;;;;7.51;90.63;93925.16;5078314;28;20176;-74
2022/11/21 10:24:22;;;;;;;7.93;4.80;;;;;;;7.50;91.01;93920.91;5075793;28;20166;-74
2022/11/21 10:27:01;;;;;;;7.67;5.17;;;;;;;7.57;90.61;93919.03;5084482;28;20242;-74
2022/11/21 10:29:52;;;;;;;7.00;4.33;;;;;;;7.69;90.83;93919.16;5063749;28;20166;-73
2022/11/21 10:32:49;;;;;;;6.57;4.40;;;;;;;7.77;90.83;93914.44;5039583;28;20611;-74
2022/11/21 10:35:20;;;;;;;7.07;4.43;;;;;;;7.81;90.60;93920.81;5075683;28;20698;-75
2022/11/21 10:38:01;;;;;;;7.80;4.77;;;;;;;7.89;90.33;93917.91;5090789;28;20278;-74
2022/11/21 10:41:13;;;;;;;8.07;4.77;;;;;;;7.74;88.63;93925.31;5073942;28;20218;-73
2022/11/21 10:46:57;;;;;;;10.52;5.90;;;;;;;7.62;89.25;93931.47;5064802;28;20810;-74
2022/11/21 10:49:26;;;;;;;18.07;8.60;;;;;;;7.71;88.77;93936.22;5068840;28;20738;-73
2022/11/21 10:52:03;;;;;;;16.08;10.50;;;;;;;7.64;88.82;93927.63;5066413;28;20508;-73
2022/11/21 10:54:31;;;;;;;19.17;14.27;;;;;;;7.70;89.73;93928.56;5066689;28;20745;-74
2022/11/21 10:57:11;;;;;;;16.93;11.67;;;;;;;7.74;89.62;93929.75;5069566;28;20203;-75
2022/11/21 10:59:36;;;;;;;11.20;7.77;;;;;;;7.80;89.88;93939.38;5061302;28;20630;-74
2022/11/21 11:02:11;;;;;;;11.67;7.60;;;;;;;7.76;90.42;93932.97;5068116;28;20278;-74
2022/11/21 11:04:36;;;;;;;10.17;6.50;;;;;;;7.80;90.33;93934.94;5071145;28;20173;-74
2022/11/21 11:07:20;;;;;;;3.70;2.90;;;;;;;7.84;89.95;93933.50;5085150;28;20190;-74
2022/11/21 11:09:46;;;;;;;3.67;2.70;;;;;;;7.87;90.27;93930.41;5060540;28;20172;-74
2022/11/21 11:15:26;;;;;;;6.83;4.53;;;;;;;7.84;89.54;93936.13;5070454;28;20305;-74
2022/11/21 11:17:57;;;;;;;8.70;6.07;;;;;;;7.89;89.71;93944.13;5070011;28;20235;-75
2022/11/21 11:20:36;;;;;;;5.13;3.10;;;;;;;7.94;90.26;93930.38;5070837;28;20670;-76
2022/11/21 11:23:26;;;;;;;4.60;3.53;;;;;;;8.05;90.05;93932.25;5071576;28;20192;-76
2022/11/21 11:25:57;;;;;;;2.93;2.40;;;;;;;8.06;89.47;93927.81;5070496;28;20209;-76
2022/11/21 11:28:24;;;;;;;3.40;2.53;;;;;;;8.11;90.93;93920.13;5079599;28;20174;-74
2022/11/21 11:30:52;;;;;;;3.73;2.87;;;;;;;8.09;88.68;93927.38;5079239;28;20176;-74
2022/11/21 11:33:46;;;;;;;5.67;4.30;;;;;;;8.23;91.77;93927.00;5088180;28;20170;-74
2022/11/21 11:36:44;;;;;;;5.57;3.70;;;;;;;8.24;88.66;93931.25;5065862;28;20257;-74
2022/11/21 11:39:31;;;;;;;7.07;3.80;;;;;;;8.28;89.79;93921.94;5066342;28;20297;-73
2022/11/21 11:48:09;;;;;;;3.30;2.60;;;;;;;8.65;85.51;93935.00;5069795;28;20271;-75
2022/11/21 11:50:43;;;;;;;6.70;2.83;;;;;;;8.55;85.31;93938.19;5071354;28;20179;-75
2022/11/21 11:53:19;;;;;;;7.20;3.97;;;;;;;8.51;85.16;93936.22;5071620;28;20282;-75
2022/11/21 11:55:56;;;;;;;8.50;4.03;;;;;;;8.47;85.90;93928.00;5083801;28;20192;-74
2022/11/21 11:58:27;;;;;;;10.27;5.43;;;;;;;8.43;85.80;93926.81;5068830;28;20205;-75
2022/11/21 12:01:09;;;;;;;6.53;3.40;;;;;;;8.46;85.93;93928.22;5055518;28;20206;-74
2022/11/21 12:03:40;;;;;;;18.57;11.23;;;;;;;8.46;86.03;93929.03;5065364;28;20739;-74
2022/11/21 12:06:14;;;;;;;15.33;7.43;;;;;;;8.61;86.35;93920.75;5061560;28;20614;-74